sensor_id;sensor_type;location;lat;lon;timestamp;pressure;altitude;pressure_sealevel;temperature;humidity
10638;BME280;47007;49.252;8.904;2023-04-25T00:00:33;99173.03;;;9.28;100.00
10638;BME280;47007;49.252;8.904;2023-04-25T00:01:14;99174.84;;;9.27;100.00
10638;BME280;47007;49.252;8.904;2023-04-25T00:01:56;99176.91;;;9.25;100.00
10638;BME280;47007;49.252;8.904;2023-04-25T00:02:39;99171.59;;;9.25;100.00
10638;BME280;47007;49.252;8.904;2023-04-25T00:03:20;99179.53;;;9.25;100.00
10638;BME280;47007;49.252;8.904;2023-04-25T00:04:03;99114.34;;;8.90;100.00
10638;BME280;47007;49.252;8.904;2023-04-25T00:04:47;99182.59;;;9.29;100.00
10638;BME280;47007;49.252;8.904;2023-04-25T00:05:31;99175.56;;;9.36;100.00
10638;BME280;47007;49.252;8.904;2023-04-25T00:06:13;99149.00;;;9.23;100.00
10638;BME280;47007;49.252;8.904;2023-04-25T00:06:55;99176.41;;;9.43;100.00
10638;BME280;47007;49.252;8.904;2023-04-25T00:07:37;99151.94;;;9.34;100.00
10638;BME280;47007;49.252;8.904;2023-04-25T00:08:19;99170.31;;;9.43;100.00
10638;BME280;47007;49.252;8.904;2023-04-25T00:09:05;99172.56;;;9.46;100.00
10638;BME280;47007;49.252;8.904;2023-04-25T00:09:51;99178.50;;;9.48;100.00
10638;BME280;47007;49.252;8.904;2023-04-25T00:10:33;99152.75;;;9.35;100.00
10638;BME280;47007;49.252;8.904;2023-04-25T00:11:14;99165.84;;;9.43;100.00
10638;BME280;47007;49.252;8.904;2023-04-25T00:11:56;99156.06;;;9.44;100.00
10638;BME280;47007;49.252;8.904;2023-04-25T00:12:38;99173.66;;;9.51;100.00
10638;BME280;47007;49.252;8.904;2023-04-25T00:13:20;99167.94;;;9.54;100.00
10638;BME280;47007;49.252;8.904;2023-04-25T00:14:03;99173.88;;;9.56;100.00
10638;BME280;47007;49.252;8.904;2023-04-25T00:14:45;99173.25;;;9.54;100.00
10638;BME280;47007;49.252;8.904;2023-04-25T00:15:28;99110.06;;;9.10;100.00
10638;BME280;47007;49.252;8.904;2023-04-25T00:16:12;99174.03;;;9.48;100.00
10638;BME280;47007;49.252;8.904;2023-04-25T00:16:56;99180.50;;;9.46;100.00
10638;BME280;47007;49.252;8.904;2023-04-25T00:17:38;99170.94;;;9.45;100.00
10638;BME280;47007;49.252;8.904;2023-04-25T00:18:20;99173.78;;;9.43;100.00
10638;BME280;47007;49.252;8.904;2023-04-25T00:19:01;99161.69;;;9.34;100.00
10638;BME280;47007;49.252;8.904;2023-04-25T00:19:43;99169.50;;;9.42;100.00
10638;BME280;47007;49.252;8.904;2023-04-25T00:20:27;99171.91;;;9.37;100.00
10638;BME280;47007;49.252;8.904;2023-04-25T00:21:09;99178.38;;;9.34;100.00
10638;BME280;47007;49.252;8.904;2023-04-25T00:21:51;99148.09;;;9.16;100.00
10638;BME280;47007;49.252;8.904;2023-04-25T00:22:32;99172.16;;;9.21;100.00
10638;BME280;47007;49.252;8.904;2023-04-25T00:23:16;99178.91;;;9.23;100.00
10638;BME280;47007;49.252;8.904;2023-04-25T00:24:01;99181.75;;;9.22;100.00
10638;BME280;47007;49.252;8.904;2023-04-25T00:24:42;99164.59;;;9.18;100.00
10638;BME280;47007;49.252;8.904;2023-04-25T00:25:24;99170.53;;;9.20;100.00
10638;BME280;47007;49.252;8.904;2023-04-25T00:26:06;99172.16;;;9.21;100.00
10638;BME280;47007;49.252;8.904;2023-04-25T00:26:47;99135.81;;;9.02;100.00
10638;BME280;47007;49.252;8.904;2023-04-25T00:27:29;99116.94;;;8.83;100.00
10638;BME280;47007;49.252;8.904;2023-04-25T00:28:11;99172.53;;;9.18;100.00
10638;BME280;47007;49.252;8.904;2023-04-25T00:28:53;99172.97;;;9.21;100.00
10638;BME280;47007;49.252;8.904;2023-04-25T00:29:35;99168.25;;;9.17;100.00
10638;BME280;47007;49.252;8.904;2023-04-25T00:30:16;99148.44;;;9.06;100.00
10638;BME280;47007;49.252;8.904;2023-04-25T00:30:58;99154.34;;;9.08;100.00
10638;BME280;47007;49.252;8.904;2023-04-25T00:31:40;99099.56;;;8.74;100.00
10638;BME280;47007;49.252;8.904;2023-04-25T00:32:21;99173.94;;;9.14;100.00
10638;BME280;47007;49.252;8.904;2023-04-25T00:33:03;99170.66;;;9.12;100.00
10638;BME280;47007;49.252;8.904;2023-04-25T00:33:46;99162.03;;;9.03;100.00
10638;BME280;47007;49.252;8.904;2023-04-25T00:34:27;99169.41;;;9.08;100.00
10638;BME280;47007;49.252;8.904;2023-04-25T00:35:09;99158.38;;;9.04;100.00
10638;BME280;47007;49.252;8.904;2023-04-25T00:35:51;99100.31;;;8.68;100.00
10638;BME280;47007;49.252;8.904;2023-04-25T00:36:33;99159.19;;;9.05;100.00
10638;BME280;47007;49.252;8.904;2023-04-25T00:37:14;99167.56;;;9.08;100.00
10638;BME280;47007;49.252;8.904;2023-04-25T00:37:56;99166.31;;;9.04;100.00
10638;BME280;47007;49.252;8.904;2023-04-25T00:38:38;99168.53;;;9.00;100.00
10638;BME280;47007;49.252;8.904;2023-04-25T00:39:19;99159.16;;;8.98;100.00
10638;BME280;47007;49.252;8.904;2023-04-25T00:40:01;99148.19;;;8.80;100.00
10638;BME280;47007;49.252;8.904;2023-04-25T00:40:43;99151.28;;;8.83;100.00
10638;BME280;47007;49.252;8.904;2023-04-25T00:41:26;99145.31;;;8.75;100.00
10638;BME280;47007;49.252;8.904;2023-04-25T00:42:08;99154.88;;;8.76;100.00
10638;BME280;47007;49.252;8.904;2023-04-25T00:42:51;99169.41;;;8.86;100.00
10638;BME280;47007;49.252;8.904;2023-04-25T00:43:34;99154.69;;;8.77;100.00
10638;BME280;47007;49.252;8.904;2023-04-25T00:44:17;99164.94;;;8.87;100.00
10638;BME280;47007;49.252;8.904;2023-04-25T00:45:00;99177.97;;;8.88;100.00
10638;BME280;47007;49.252;8.904;2023-04-25T00:45:42;99163.75;;;8.89;100.00
10638;BME280;47007;49.252;8.904;2023-04-25T00:46:24;99039.38;;;8.12;100.00
10638;BME280;47007;49.252;8.904;2023-04-25T00:47:06;99142.47;;;8.76;100.00
10638;BME280;47007;49.252;8.904;2023-04-25T00:47:48;99158.47;;;8.89;100.00
10638;BME280;47007;49.252;8.904;2023-04-25T00:48:30;99162.34;;;8.93;100.00
10638;BME280;47007;49.252;8.904;2023-04-25T00:49:12;99157.97;;;9.00;100.00
10638;BME280;47007;49.252;8.904;2023-04-25T00:49:56;99106.41;;;8.69;100.00
10638;BME280;47007;49.252;8.904;2023-04-25T00:50:38;99144.75;;;9.00;100.00
10638;BME280;47007;49.252;8.904;2023-04-25T00:51:21;99155.38;;;9.07;100.00
10638;BME280;47007;49.252;8.904;2023-04-25T00:52:03;99168.66;;;9.14;100.00
10638;BME280;47007;49.252;8.904;2023-04-25T00:52:45;99161.09;;;9.11;100.00
10638;BME280;47007;49.252;8.904;2023-04-25T00:53:28;99155.75;;;9.04;100.00
10638;BME280;47007;49.252;8.904;2023-04-25T00:54:11;99151.03;;;8.99;100.00
10638;BME280;47007;49.252;8.904;2023-04-25T00:54:53;99169.13;;;9.02;100.00
10638;BME280;47007;49.252;8.904;2023-04-25T00:55:35;99136.44;;;8.82;100.00
10638;BME280;47007;49.252;8.904;2023-04-25T00:56:17;99165.72;;;9.02;100.00
10638;BME280;47007;49.252;8.904;2023-04-25T00:56:59;99158.34;;;8.97;100.00
10638;BME280;47007;49.252;8.904;2023-04-25T00:57:42;99162.44;;;9.00;100.00
10638;BME280;47007;49.252;8.904;2023-04-25T00:58:24;99141.78;;;8.89;100.00
10638;BME280;47007;49.252;8.904;2023-04-25T00:59:06;99158.97;;;8.99;100.00
10638;BME280;47007;49.252;8.904;2023-04-25T00:59:50;99166.75;;;9.08;100.00
10638;BME280;47007;49.252;8.904;2023-04-25T01:00:32;99154.91;;;9.04;100.00
10638;BME280;47007;49.252;8.904;2023-04-25T01:01:14;99151.03;;;8.99;100.00
10638;BME280;47007;49.252;8.904;2023-04-25T01:01:56;99124.47;;;8.86;100.00
10638;BME280;47007;49.252;8.904;2023-04-25T01:02:40;99167.22;;;9.11;100.00
10638;BME280;47007;49.252;8.904;2023-04-25T01:03:24;99145.75;;;8.99;100.00
10638;BME280;47007;49.252;8.904;2023-04-25T01:04:06;99162.38;;;9.15;100.00
10638;BME280;47007;49.252;8.904;2023-04-25T01:04:48;99163.41;;;9.20;100.00
10638;BME280;47007;49.252;8.904;2023-04-25T01:05:31;99129.72;;;9.01;100.00
10638;BME280;47007;49.252;8.904;2023-04-25T01:06:12;99160.63;;;9.28;100.00
10638;BME280;47007;49.252;8.904;2023-04-25T01:06:54;99143.25;;;9.19;100.00
10638;BME280;47007;49.252;8.904;2023-04-25T01:07:37;99149.22;;;9.28;100.00
10638;BME280;47007;49.252;8.904;2023-04-25T01:08:22;99163.56;;;9.40;100.00
10638;BME280;47007;49.252;8.904;2023-04-25T01:09:04;99164.19;;;9.42;100.00
10638;BME280;47007;49.252;8.904;2023-04-25T01:09:46;99156.41;;;9.34;100.00
10638;BME280;47007;49.252;8.904;2023-04-25T01:10:28;99169.63;;;9.34;100.00
10638;BME280;47007;49.252;8.904;2023-04-25T01:11:10;99131.66;;;9.14;100.00
10638;BME280;47007;49.252;8.904;2023-04-25T01:11:52;99170.78;;;9.25;100.00
10638;BME280;47007;49.252;8.904;2023-04-25T01:12:34;99146.25;;;9.10;100.00
10638;BME280;47007;49.252;8.904;2023-04-25T01:13:15;99158.69;;;9.16;100.00
10638;BME280;47007;49.252;8.904;2023-04-25T01:13:58;99138.81;;;8.98;100.00
10638;BME280;47007;49.252;8.904;2023-04-25T01:14:39;99151.44;;;9.03;100.00
10638;BME280;47007;49.252;8.904;2023-04-25T01:15:21;99157.00;;;9.08;100.00
10638;BME280;47007;49.252;8.904;2023-04-25T01:16:03;99144.94;;;8.99;100.00
10638;BME280;47007;49.252;8.904;2023-04-25T01:16:46;99156.69;;;8.96;100.00
10638;BME280;47007;49.252;8.904;2023-04-25T01:17:28;99103.97;;;8.67;100.00
10638;BME280;47007;49.252;8.904;2023-04-25T01:18:11;99152.78;;;8.92;100.00
10638;BME280;47007;49.252;8.904;2023-04-25T01:18:54;99139.84;;;8.76;100.00
10638;BME280;47007;49.252;8.904;2023-04-25T01:19:36;99150.63;;;8.81;100.00
10638;BME280;47007;49.252;8.904;2023-04-25T01:20:20;99150.28;;;8.84;100.00
10638;BME280;47007;49.252;8.904;2023-04-25T01:21:07;99153.47;;;8.80;100.00
10638;BME280;47007;49.252;8.904;2023-04-25T01:21:50;99151.22;;;8.77;100.00
10638;BME280;47007;49.252;8.904;2023-04-25T01:22:33;99156.50;;;8.77;100.00
10638;BME280;47007;49.252;8.904;2023-04-25T01:23:15;99150.97;;;8.72;100.00
10638;BME280;47007;49.252;8.904;2023-04-25T01:23:57;99154.06;;;8.75;100.00
10638;BME280;47007;49.252;8.904;2023-04-25T01:24:39;99133.78;;;8.61;100.00
10638;BME280;47007;49.252;8.904;2023-04-25T01:25:22;99152.78;;;8.71;100.00
10638;BME280;47007;49.252;8.904;2023-04-25T01:26:04;99158.63;;;8.67;100.00
10638;BME280;47007;49.252;8.904;2023-04-25T01:26:45;99143.88;;;8.57;100.00
10638;BME280;47007;49.252;8.904;2023-04-25T01:27:36;99145.81;;;8.63;100.00
10638;BME280;47007;49.252;8.904;2023-04-25T01:28:18;99148.03;;;8.67;100.00
10638;BME280;47007;49.252;8.904;2023-04-25T01:29:00;99150.69;;;8.67;100.00
10638;BME280;47007;49.252;8.904;2023-04-25T01:29:42;99154.34;;;8.65;100.00
10638;BME280;47007;49.252;8.904;2023-04-25T01:30:26;99150.50;;;8.68;100.00
10638;BME280;47007;49.252;8.904;2023-04-25T01:31:09;99147.69;;;8.70;100.00
10638;BME280;47007;49.252;8.904;2023-04-25T01:31:51;99145.84;;;8.70;100.00
10638;BME280;47007;49.252;8.904;2023-04-25T01:32:34;99135.06;;;8.65;100.00
10638;BME280;47007;49.252;8.904;2023-04-25T01:33:21;99146.13;;;8.75;100.00
10638;BME280;47007;49.252;8.904;2023-04-25T01:34:03;99134.09;;;8.73;100.00
10638;BME280;47007;49.252;8.904;2023-04-25T01:34:44;99120.81;;;8.66;100.00
10638;BME280;47007;49.252;8.904;2023-04-25T01:35:26;99144.16;;;8.84;100.00
10638;BME280;47007;49.252;8.904;2023-04-25T01:36:08;99141.16;;;8.87;100.00
10638;BME280;47007;49.252;8.904;2023-04-25T01:36:51;99133.59;;;8.84;100.00
10638;BME280;47007;49.252;8.904;2023-04-25T01:37:33;99140.16;;;8.88;100.00
10638;BME280;47007;49.252;8.904;2023-04-25T01:38:15;99141.97;;;8.87;100.00
10638;BME280;47007;49.252;8.904;2023-04-25T01:38:57;99117.25;;;8.74;100.00
10638;BME280;47007;49.252;8.904;2023-04-25T01:39:39;99124.34;;;8.73;100.00
10638;BME280;47007;49.252;8.904;2023-04-25T01:40:21;99136.88;;;8.86;100.00
10638;BME280;47007;49.252;8.904;2023-04-25T01:41:06;99110.69;;;8.70;100.00
10638;BME280;47007;49.252;8.904;2023-04-25T01:41:48;99130.78;;;8.85;100.00
10638;BME280;47007;49.252;8.904;2023-04-25T01:42:31;99138.31;;;8.88;100.00
10638;BME280;47007;49.252;8.904;2023-04-25T01:43:13;99136.09;;;8.92;100.00
10638;BME280;47007;49.252;8.904;2023-04-25T01:43:56;99116.94;;;8.83;100.00
10638;BME280;47007;49.252;8.904;2023-04-25T01:44:37;99128.06;;;9.00;100.00
10638;BME280;47007;49.252;8.904;2023-04-25T01:45:20;99137.41;;;9.02;100.00
10638;BME280;47007;49.252;8.904;2023-04-25T01:46:02;99141.69;;;9.04;100.00
10638;BME280;47007;49.252;8.904;2023-04-25T01:46:44;99137.00;;;8.99;100.00
10638;BME280;47007;49.252;8.904;2023-04-25T01:47:26;99136.41;;;9.04;100.00
10638;BME280;47007;49.252;8.904;2023-04-25T01:48:09;99131.75;;;9.06;100.00
10638;BME280;47007;49.252;8.904;2023-04-25T01:48:51;99112.13;;;8.93;100.00
10638;BME280;47007;49.252;8.904;2023-04-25T01:49:33;99004.41;;;8.25;100.00
10638;BME280;47007;49.252;8.904;2023-04-25T01:50:17;99112.22;;;9.00;100.00
10638;BME280;47007;49.252;8.904;2023-04-25T01:50:59;99132.41;;;9.08;100.00
10638;BME280;47007;49.252;8.904;2023-04-25T01:51:44;99130.13;;;9.05;100.00
10638;BME280;47007;49.252;8.904;2023-04-25T01:52:25;99130.53;;;9.02;100.00
10638;BME280;47007;49.252;8.904;2023-04-25T01:53:09;99124.78;;;8.98;100.00
10638;BME280;47007;49.252;8.904;2023-04-25T01:53:51;99121.06;;;8.92;100.00
10638;BME280;47007;49.252;8.904;2023-04-25T01:54:34;99123.91;;;8.91;100.00
10638;BME280;47007;49.252;8.904;2023-04-25T01:55:16;99122.47;;;8.88;100.00
10638;BME280;47007;49.252;8.904;2023-04-25T01:56:13;99126.31;;;8.86;100.00
10638;BME280;47007;49.252;8.904;2023-04-25T01:56:57;99125.84;;;8.82;100.00
10638;BME280;47007;49.252;8.904;2023-04-25T01:57:39;99112.31;;;8.71;100.00
10638;BME280;47007;49.252;8.904;2023-04-25T01:58:21;99133.16;;;8.80;100.00
10638;BME280;47007;49.252;8.904;2023-04-25T01:59:19;99137.00;;;8.78;100.00
10638;BME280;47007;49.252;8.904;2023-04-25T02:00:29;99127.44;;;8.77;100.00
10638;BME280;47007;49.252;8.904;2023-04-25T02:01:11;99132.91;;;8.75;100.00
10638;BME280;47007;49.252;8.904;2023-04-25T02:01:59;99133.91;;;8.74;100.00
10638;BME280;47007;49.252;8.904;2023-04-25T02:02:45;99115.94;;;8.63;100.00
10638;BME280;47007;49.252;8.904;2023-04-25T02:03:43;99128.72;;;8.66;100.00
10638;BME280;47007;49.252;8.904;2023-04-25T02:04:34;99108.19;;;8.61;100.00
10638;BME280;47007;49.252;8.904;2023-04-25T02:05:17;99122.63;;;8.65;100.00
10638;BME280;47007;49.252;8.904;2023-04-25T02:05:59;99135.78;;;8.80;100.00
10638;BME280;47007;49.252;8.904;2023-04-25T02:06:42;99111.47;;;8.63;100.00
10638;BME280;47007;49.252;8.904;2023-04-25T02:07:26;99124.34;;;8.73;100.00
10638;BME280;47007;49.252;8.904;2023-04-25T02:08:08;99107.59;;;8.66;100.00
10638;BME280;47007;49.252;8.904;2023-04-25T02:08:50;99140.97;;;8.88;100.00
10638;BME280;47007;49.252;8.904;2023-04-25T02:09:32;99128.31;;;8.84;100.00
10638;BME280;47007;49.252;8.904;2023-04-25T02:10:17;99109.00;;;8.83;100.00
10638;BME280;47007;49.252;8.904;2023-04-25T02:11:18;99117.09;;;9.03;100.00
10638;BME280;47007;49.252;8.904;2023-04-25T02:12:20;99138.97;;;9.18;100.00
10638;BME280;47007;49.252;8.904;2023-04-25T02:13:20;99136.97;;;9.20;100.00
10638;BME280;47007;49.252;8.904;2023-04-25T02:14:18;99136.53;;;9.17;100.00
10638;BME280;47007;49.252;8.904;2023-04-25T02:15:06;99110.75;;;8.97;100.00
10638;BME280;47007;49.252;8.904;2023-04-25T02:15:56;99115.03;;;8.98;100.00
10638;BME280;47007;49.252;8.904;2023-04-25T02:16:38;99127.47;;;9.05;100.00
10638;BME280;47007;49.252;8.904;2023-04-25T02:17:21;99129.72;;;9.01;100.00
10638;BME280;47007;49.252;8.904;2023-04-25T02:18:04;99130.06;;;8.98;100.00
10638;BME280;47007;49.252;8.904;2023-04-25T02:18:47;99080.38;;;8.65;100.00
10638;BME280;47007;49.252;8.904;2023-04-25T02:19:29;99070.94;;;8.56;100.00
10638;BME280;47007;49.252;8.904;2023-04-25T02:20:11;99125.50;;;8.85;100.00
10638;BME280;47007;49.252;8.904;2023-04-25T02:20:53;99093.16;;;8.62;100.00
10638;BME280;47007;49.252;8.904;2023-04-25T02:21:35;99133.41;;;8.85;100.00
10638;BME280;47007;49.252;8.904;2023-04-25T02:22:17;99055.91;;;8.36;100.00
10638;BME280;47007;49.252;8.904;2023-04-25T02:23:00;99140.25;;;8.80;100.00
10638;BME280;47007;49.252;8.904;2023-04-25T02:23:42;99108.91;;;8.55;100.00
10638;BME280;47007;49.252;8.904;2023-04-25T02:24:24;99133.72;;;8.76;100.00
10638;BME280;47007;49.252;8.904;2023-04-25T02:25:06;99120.19;;;8.64;100.00
10638;BME280;47007;49.252;8.904;2023-04-25T02:25:48;99137.19;;;8.76;100.00
10638;BME280;47007;49.252;8.904;2023-04-25T02:26:30;99130.28;;;8.75;100.00
10638;BME280;47007;49.252;8.904;2023-04-25T02:27:12;99141.78;;;8.89;100.00
10638;BME280;47007;49.252;8.904;2023-04-25T02:27:53;99130.44;;;8.95;100.00
10638;BME280;47007;49.252;8.904;2023-04-25T02:28:35;99125.25;;;9.02;100.00
10638;BME280;47007;49.252;8.904;2023-04-25T02:29:18;99131.56;;;9.07;100.00
10638;BME280;47007;49.252;8.904;2023-04-25T02:30:00;99126.53;;;9.12;100.00
10638;BME280;47007;49.252;8.904;2023-04-25T02:30:42;99136.94;;;9.14;100.00
10638;BME280;47007;49.252;8.904;2023-04-25T02:31:24;99130.81;;;9.13;100.00
10638;BME280;47007;49.252;8.904;2023-04-25T02:32:05;99125.13;;;9.16;100.00
10638;BME280;47007;49.252;8.904;2023-04-25T02:32:47;99122.13;;;9.19;100.00
10638;BME280;47007;49.252;8.904;2023-04-25T02:33:29;99132.31;;;9.22;100.00
10638;BME280;47007;49.252;8.904;2023-04-25T02:34:12;99127.03;;;9.22;100.00
10638;BME280;47007;49.252;8.904;2023-04-25T02:34:53;99126.41;;;9.20;100.00
10638;BME280;47007;49.252;8.904;2023-04-25T02:35:35;99062.22;;;8.77;100.00
10638;BME280;47007;49.252;8.904;2023-04-25T02:36:17;99066.91;;;8.82;100.00
10638;BME280;47007;49.252;8.904;2023-04-25T02:36:58;99086.72;;;8.92;100.00
10638;BME280;47007;49.252;8.904;2023-04-25T02:37:40;99115.06;;;9.05;100.00
10638;BME280;47007;49.252;8.904;2023-04-25T02:38:22;99106.09;;;8.99;100.00
10638;BME280;47007;49.252;8.904;2023-04-25T02:39:03;99123.84;;;9.06;100.00
10638;BME280;47007;49.252;8.904;2023-04-25T02:39:45;99127.47;;;9.05;100.00
10638;BME280;47007;49.252;8.904;2023-04-25T02:40:27;99049.63;;;8.58;100.00
10638;BME280;47007;49.252;8.904;2023-04-25T02:41:08;99075.34;;;8.71;100.00
10638;BME280;47007;49.252;8.904;2023-04-25T02:41:51;99129.31;;;9.04;100.00
10638;BME280;47007;49.252;8.904;2023-04-25T02:42:33;99097.28;;;8.92;100.00
10638;BME280;47007;49.252;8.904;2023-04-25T02:43:14;99114.66;;;9.02;100.00
10638;BME280;47007;49.252;8.904;2023-04-25T02:43:57;99037.59;;;8.55;100.00
10638;BME280;47007;49.252;8.904;2023-04-25T02:44:39;99119.72;;;9.03;100.00
10638;BME280;47007;49.252;8.904;2023-04-25T02:45:21;99120.13;;;9.00;100.00
10638;BME280;47007;49.252;8.904;2023-04-25T02:46:03;99114.25;;;9.05;100.00
10638;BME280;47007;49.252;8.904;2023-04-25T02:46:45;99122.19;;;9.05;100.00
10638;BME280;47007;49.252;8.904;2023-04-25T02:47:27;99119.50;;;8.98;100.00
10638;BME280;47007;49.252;8.904;2023-04-25T02:48:09;99120.25;;;8.92;100.00
10638;BME280;47007;49.252;8.904;2023-04-25T02:48:51;99119.38;;;8.85;100.00
10638;BME280;47007;49.252;8.904;2023-04-25T02:49:32;99101.75;;;8.71;100.00
10638;BME280;47007;49.252;8.904;2023-04-25T02:50:14;99116.06;;;8.76;100.00
10638;BME280;47007;49.252;8.904;2023-04-25T02:50:56;99101.06;;;8.62;100.00
10638;BME280;47007;49.252;8.904;2023-04-25T02:51:37;99120.25;;;8.71;100.00
10638;BME280;47007;49.252;8.904;2023-04-25T02:52:19;99101.19;;;8.54;100.00
10638;BME280;47007;49.252;8.904;2023-04-25T02:53:07;99083.59;;;8.40;100.00
10638;BME280;47007;49.252;8.904;2023-04-25T02:53:55;99119.31;;;8.57;100.00
10638;BME280;47007;49.252;8.904;2023-04-25T02:54:38;99120.69;;;8.53;100.00
10638;BME280;47007;49.252;8.904;2023-04-25T02:55:19;99068.47;;;8.19;100.00
10638;BME280;47007;49.252;8.904;2023-04-25T02:56:02;99105.53;;;8.40;100.00
10638;BME280;47007;49.252;8.904;2023-04-25T02:56:43;99115.78;;;8.50;100.00
10638;BME280;47007;49.252;8.904;2023-04-25T02:57:30;99119.25;;;8.50;100.00
10638;BME280;47007;49.252;8.904;2023-04-25T02:58:12;99087.97;;;8.33;100.00
10638;BME280;47007;49.252;8.904;2023-04-25T02:58:59;99123.94;;;8.55;100.00
10638;BME280;47007;49.252;8.904;2023-04-25T02:59:41;99120.31;;;8.56;100.00
10638;BME280;47007;49.252;8.904;2023-04-25T03:00:22;99118.47;;;8.56;100.00
10638;BME280;47007;49.252;8.904;2023-04-25T03:01:04;99128.03;;;8.57;100.00
10638;BME280;47007;49.252;8.904;2023-04-25T03:01:46;99075.09;;;8.29;100.00
10638;BME280;47007;49.252;8.904;2023-04-25T03:02:28;99103.59;;;8.49;100.00
10638;BME280;47007;49.252;8.904;2023-04-25T03:03:10;99081.13;;;8.38;100.00
10638;BME280;47007;49.252;8.904;2023-04-25T03:03:52;99101.41;;;8.52;100.00
10638;BME280;47007;49.252;8.904;2023-04-25T03:04:34;99098.31;;;8.49;100.00
10638;BME280;47007;49.252;8.904;2023-04-25T03:05:16;99122.84;;;8.64;100.00
10638;BME280;47007;49.252;8.904;2023-04-25T03:05:58;99125.03;;;8.60;100.00
10638;BME280;47007;49.252;8.904;2023-04-25T03:06:45;99111.75;;;8.54;100.00
10638;BME280;47007;49.252;8.904;2023-04-25T03:07:26;99083.78;;;8.38;100.00
10638;BME280;47007;49.252;8.904;2023-04-25T03:08:08;99114.84;;;8.57;100.00
10638;BME280;47007;49.252;8.904;2023-04-25T03:08:51;99125.84;;;8.61;100.00
10638;BME280;47007;49.252;8.904;2023-04-25T03:09:33;99102.41;;;8.51;100.00
10638;BME280;47007;49.252;8.904;2023-04-25T03:10:15;99121.22;;;8.63;100.00
10638;BME280;47007;49.252;8.904;2023-04-25T03:10:56;99122.84;;;8.64;100.00
10638;BME280;47007;49.252;8.904;2023-04-25T03:11:39;99067.13;;;8.23;100.00
10638;BME280;47007;49.252;8.904;2023-04-25T03:12:20;99115.03;;;8.56;100.00
10638;BME280;47007;49.252;8.904;2023-04-25T03:13:02;99105.59;;;8.47;100.00
10638;BME280;47007;49.252;8.904;2023-04-25T03:13:44;99124.66;;;8.63;100.00
10638;BME280;47007;49.252;8.904;2023-04-25T03:14:25;99105.22;;;8.50;100.00
10638;BME280;47007;49.252;8.904;2023-04-25T03:15:08;99129.69;;;8.58;100.00
10638;BME280;47007;49.252;8.904;2023-04-25T03:15:50;99098.22;;;8.42;100.00
10638;BME280;47007;49.252;8.904;2023-04-25T03:16:33;99122.72;;;8.51;100.00
10638;BME280;47007;49.252;8.904;2023-04-25T03:17:15;99099.16;;;8.35;100.00
10638;BME280;47007;49.252;8.904;2023-04-25T03:17:57;99058.69;;;8.13;100.00
10638;BME280;47007;49.252;8.904;2023-04-25T03:18:39;99106.94;;;8.43;100.00
10638;BME280;47007;49.252;8.904;2023-04-25T03:19:21;99077.94;;;8.28;100.00
10638;BME280;47007;49.252;8.904;2023-04-25T03:20:03;99070.38;;;8.25;100.00
10638;BME280;47007;49.252;8.904;2023-04-25T03:20:45;98992.72;;;7.77;100.00
10638;BME280;47007;49.252;8.904;2023-04-25T03:21:28;99006.41;;;7.87;100.00
10638;BME280;47007;49.252;8.904;2023-04-25T03:22:12;99038.88;;;8.02;100.00
10638;BME280;47007;49.252;8.904;2023-04-25T03:22:54;99078.41;;;8.32;100.00
10638;BME280;47007;49.252;8.904;2023-04-25T03:23:36;99105.31;;;8.42;100.00
10638;BME280;47007;49.252;8.904;2023-04-25T03:24:18;99094.88;;;8.34;100.00
10638;BME280;47007;49.252;8.904;2023-04-25T03:24:59;99115.78;;;8.50;100.00
10638;BME280;47007;49.252;8.904;2023-04-25T03:25:41;99061.31;;;8.13;100.00
10638;BME280;47007;49.252;8.904;2023-04-25T03:26:24;99094.06;;;8.33;100.00
10638;BME280;47007;49.252;8.904;2023-04-25T03:27:06;99127.72;;;8.46;100.00
10638;BME280;47007;49.252;8.904;2023-04-25T03:27:47;99103.88;;;8.39;100.00
10638;BME280;47007;49.252;8.904;2023-04-25T03:28:29;99077.59;;;8.16;100.00
10638;BME280;47007;49.252;8.904;2023-04-25T03:29:11;99088.13;;;8.16;100.00
10638;BME280;47007;49.252;8.904;2023-04-25T03:29:56;99093.34;;;8.24;100.00
10638;BME280;47007;49.252;8.904;2023-04-25T03:30:38;99117.63;;;8.35;100.00
10638;BME280;47007;49.252;8.904;2023-04-25T03:31:20;99082.25;;;8.14;100.00
10638;BME280;47007;49.252;8.904;2023-04-25T03:32:02;99033.44;;;7.89;100.00
10638;BME280;47007;49.252;8.904;2023-04-25T03:32:43;99066.50;;;8.06;100.00
10638;BME280;47007;49.252;8.904;2023-04-25T03:33:29;99109.22;;;8.31;100.00
10638;BME280;47007;49.252;8.904;2023-04-25T03:34:11;99085.50;;;8.16;100.00
10638;BME280;47007;49.252;8.904;2023-04-25T03:34:53;99095.44;;;8.14;100.00
10638;BME280;47007;49.252;8.904;2023-04-25T03:35:35;99091.00;;;8.15;100.00
10638;BME280;47007;49.252;8.904;2023-04-25T03:36:16;99105.25;;;8.20;100.00
10638;BME280;47007;49.252;8.904;2023-04-25T03:36:59;99064.00;;;7.98;100.00
10638;BME280;47007;49.252;8.904;2023-04-25T03:37:41;99116.34;;;8.30;100.00
10638;BME280;47007;49.252;8.904;2023-04-25T03:38:31;99091.72;;;8.09;100.00
10638;BME280;47007;49.252;8.904;2023-04-25T03:39:13;99104.19;;;8.15;100.00
10638;BME280;47007;49.252;8.904;2023-04-25T03:39:59;99125.47;;;8.28;100.00
10638;BME280;47007;49.252;8.904;2023-04-25T03:40:53;99092.53;;;8.09;100.00
10638;BME280;47007;49.252;8.904;2023-04-25T03:41:47;99126.56;;;8.34;100.00
10638;BME280;47007;49.252;8.904;2023-04-25T03:42:31;99072.97;;;8.04;100.00
10638;BME280;47007;49.252;8.904;2023-04-25T03:43:12;99100.34;;;8.17;100.00
10638;BME280;47007;49.252;8.904;2023-04-25T03:43:59;99131.84;;;8.34;100.00
10638;BME280;47007;49.252;8.904;2023-04-25T03:44:41;99023.38;;;7.63;100.00
10638;BME280;47007;49.252;8.904;2023-04-25T03:45:23;99108.56;;;8.08;100.00
10638;BME280;47007;49.252;8.904;2023-04-25T03:46:05;99114.81;;;8.21;100.00
10638;BME280;47007;49.252;8.904;2023-04-25T03:46:46;99133.00;;;8.31;100.00
10638;BME280;47007;49.252;8.904;2023-04-25T03:47:28;99085.97;;;8.05;100.00
10638;BME280;47007;49.252;8.904;2023-04-25T03:48:11;99099.47;;;8.10;100.00